sensor_id;sensor_type;location;lat;lon;timestamp;P1;durP1;ratioP1;P2;durP2;ratioP2
62925;SDS011;55732;52.248;-0.844;2022-08-30T00:01:30;2.10;;;1.40;;
62925;SDS011;55732;52.248;-0.844;2022-08-30T00:03:57;3.70;;;1.50;;
62925;SDS011;55732;52.248;-0.844;2022-08-30T00:06:24;2.70;;;1.50;;
62925;SDS011;55732;52.248;-0.844;2022-08-30T00:08:51;5.10;;;1.50;;
62925;SDS011;55732;52.248;-0.844;2022-08-30T00:11:18;5.60;;;1.40;;
62925;SDS011;55732;52.248;-0.844;2022-08-30T00:13:47;5.20;;;1.50;;
62925;SDS011;55732;52.248;-0.844;2022-08-30T00:16:14;2.20;;;1.50;;
62925;SDS011;55732;52.248;-0.844;2022-08-30T00:18:41;4.50;;;1.60;;
62925;SDS011;55732;52.248;-0.844;2022-08-30T00:21:07;3.70;;;1.40;;
62925;SDS011;55732;52.248;-0.844;2022-08-30T00:23:33;2.20;;;1.70;;
62925;SDS011;55732;52.248;-0.844;2022-08-30T00:25:59;4.10;;;1.60;;
62925;SDS011;55732;52.248;-0.844;2022-08-30T00:28:25;3.90;;;1.70;;
62925;SDS011;55732;52.248;-0.844;2022-08-30T00:30:51;4.10;;;1.80;;
62925;SDS011;55732;52.248;-0.844;2022-08-30T00:33:16;3.00;;;1.60;;
62925;SDS011;55732;52.248;-0.844;2022-08-30T00:35:42;9.20;;;1.80;;
62925;SDS011;55732;52.248;-0.844;2022-08-30T00:38:09;3.50;;;1.70;;
62925;SDS011;55732;52.248;-0.844;2022-08-30T00:40:40;4.10;;;1.80;;
62925;SDS011;55732;52.248;-0.844;2022-08-30T00:43:09;5.20;;;1.90;;
62925;SDS011;55732;52.248;-0.844;2022-08-30T00:45:40;5.40;;;1.80;;
62925;SDS011;55732;52.248;-0.844;2022-08-30T00:48:06;4.00;;;2.10;;
62925;SDS011;55732;52.248;-0.844;2022-08-30T00:50:37;3.00;;;1.60;;
62925;SDS011;55732;52.248;-0.844;2022-08-30T00:53:08;3.40;;;1.80;;
62925;SDS011;55732;52.248;-0.844;2022-08-30T00:55:37;4.70;;;1.70;;
62925;SDS011;55732;52.248;-0.844;2022-08-30T00:58:05;2.30;;;1.60;;
62925;SDS011;55732;52.248;-0.844;2022-08-30T01:00:34;5.60;;;1.90;;
62925;SDS011;55732;52.248;-0.844;2022-08-30T01:03:01;3.30;;;1.40;;
62925;SDS011;55732;52.248;-0.844;2022-08-30T01:05:26;3.10;;;1.80;;
62925;SDS011;55732;52.248;-0.844;2022-08-30T01:07:52;4.20;;;1.60;;
62925;SDS011;55732;52.248;-0.844;2022-08-30T01:10:17;5.50;;;1.90;;
62925;SDS011;55732;52.248;-0.844;2022-08-30T01:12:43;3.40;;;1.70;;
62925;SDS011;55732;52.248;-0.844;2022-08-30T01:15:10;5.60;;;1.70;;
62925;SDS011;55732;52.248;-0.844;2022-08-30T01:17:39;3.70;;;1.60;;
62925;SDS011;55732;52.248;-0.844;2022-08-30T01:20:09;2.20;;;1.40;;
62925;SDS011;55732;52.248;-0.844;2022-08-30T01:25:13;5.30;;;1.60;;
62925;SDS011;55732;52.248;-0.844;2022-08-30T01:28:00;4.50;;;1.80;;
62925;SDS011;55732;52.248;-0.844;2022-08-30T01:30:30;5.40;;;1.80;;
62925;SDS011;55732;52.248;-0.844;2022-08-30T01:32:57;5.30;;;1.90;;
62925;SDS011;55732;52.248;-0.844;2022-08-30T01:35:25;4.50;;;1.70;;
62925;SDS011;55732;52.248;-0.844;2022-08-30T01:37:51;4.60;;;1.70;;
62925;SDS011;55732;52.248;-0.844;2022-08-30T01:40:17;4.00;;;1.70;;
62925;SDS011;55732;52.248;-0.844;2022-08-30T01:42:44;3.20;;;1.60;;
62925;SDS011;55732;52.248;-0.844;2022-08-30T01:45:09;5.40;;;2.20;;
62925;SDS011;55732;52.248;-0.844;2022-08-30T01:47:36;5.30;;;1.90;;
62925;SDS011;55732;52.248;-0.844;2022-08-30T01:50:01;2.60;;;1.90;;
62925;SDS011;55732;52.248;-0.844;2022-08-30T01:52:28;5.40;;;1.70;;
62925;SDS011;55732;52.248;-0.844;2022-08-30T01:54:54;3.80;;;1.80;;
62925;SDS011;55732;52.248;-0.844;2022-08-30T01:57:20;3.00;;;1.60;;
62925;SDS011;55732;52.248;-0.844;2022-08-30T01:59:47;4.50;;;1.90;;
62925;SDS011;55732;52.248;-0.844;2022-08-30T02:02:18;5.90;;;1.90;;
62925;SDS011;55732;52.248;-0.844;2022-08-30T02:04:47;2.50;;;1.60;;
62925;SDS011;55732;52.248;-0.844;2022-08-30T02:07:14;3.30;;;1.80;;
62925;SDS011;55732;52.248;-0.844;2022-08-30T02:09:40;6.60;;;2.00;;
62925;SDS011;55732;52.248;-0.844;2022-08-30T02:12:06;6.60;;;1.50;;
62925;SDS011;55732;52.248;-0.844;2022-08-30T02:14:36;1.50;;;1.40;;
62925;SDS011;55732;52.248;-0.844;2022-08-30T02:17:03;4.00;;;2.10;;
62925;SDS011;55732;52.248;-0.844;2022-08-30T02:19:30;4.90;;;1.40;;
62925;SDS011;55732;52.248;-0.844;2022-08-30T02:21:56;4.60;;;1.90;;
62925;SDS011;55732;52.248;-0.844;2022-08-30T02:24:22;2.30;;;1.60;;
62925;SDS011;55732;52.248;-0.844;2022-08-30T02:26:48;3.90;;;1.50;;
62925;SDS011;55732;52.248;-0.844;2022-08-30T02:29:14;2.10;;;1.80;;
62925;SDS011;55732;52.248;-0.844;2022-08-30T02:31:39;2.90;;;1.80;;
62925;SDS011;55732;52.248;-0.844;2022-08-30T02:34:05;4.50;;;1.70;;
62925;SDS011;55732;52.248;-0.844;2022-08-30T02:36:30;4.80;;;1.90;;
62925;SDS011;55732;52.248;-0.844;2022-08-30T02:38:56;1.60;;;1.40;;
62925;SDS011;55732;52.248;-0.844;2022-08-30T02:41:21;1.90;;;1.40;;
62925;SDS011;55732;52.248;-0.844;2022-08-30T02:43:48;3.90;;;1.90;;
62925;SDS011;55732;52.248;-0.844;2022-08-30T02:46:15;4.30;;;1.60;;
62925;SDS011;55732;52.248;-0.844;2022-08-30T02:48:42;3.60;;;2.40;;
62925;SDS011;55732;52.248;-0.844;2022-08-30T02:51:08;3.40;;;2.10;;
62925;SDS011;55732;52.248;-0.844;2022-08-30T02:53:36;4.00;;;2.00;;
62925;SDS011;55732;52.248;-0.844;2022-08-30T02:56:02;2.50;;;1.60;;
62925;SDS011;55732;52.248;-0.844;2022-08-30T02:58:28;3.60;;;1.80;;
62925;SDS011;55732;52.248;-0.844;2022-08-30T03:00:54;4.60;;;1.90;;
62925;SDS011;55732;52.248;-0.844;2022-08-30T03:03:20;3.10;;;2.10;;
62925;SDS011;55732;52.248;-0.844;2022-08-30T03:05:45;3.50;;;1.80;;
62925;SDS011;55732;52.248;-0.844;2022-08-30T03:08:11;3.20;;;1.70;;
62925;SDS011;55732;52.248;-0.844;2022-08-30T03:10:36;4.20;;;1.80;;
62925;SDS011;55732;52.248;-0.844;2022-08-30T03:13:02;5.00;;;1.70;;
62925;SDS011;55732;52.248;-0.844;2022-08-30T03:15:29;9.10;;;3.00;;
62925;SDS011;55732;52.248;-0.844;2022-08-30T03:17:55;4.80;;;1.50;;
62925;SDS011;55732;52.248;-0.844;2022-08-30T03:20:22;4.30;;;1.80;;
62925;SDS011;55732;52.248;-0.844;2022-08-30T03:22:48;4.10;;;1.70;;
62925;SDS011;55732;52.248;-0.844;2022-08-30T03:25:14;3.90;;;1.80;;
62925;SDS011;55732;52.248;-0.844;2022-08-30T03:27:40;4.70;;;1.70;;
62925;SDS011;55732;52.248;-0.844;2022-08-30T03:30:06;4.70;;;2.00;;
62925;SDS011;55732;52.248;-0.844;2022-08-30T03:32:32;4.70;;;1.90;;
62925;SDS011;55732;52.248;-0.844;2022-08-30T03:34:58;3.20;;;1.80;;
62925;SDS011;55732;52.248;-0.844;2022-08-30T03:37:24;2.40;;;1.50;;
62925;SDS011;55732;52.248;-0.844;2022-08-30T03:39:51;3.50;;;1.80;;
62925;SDS011;55732;52.248;-0.844;2022-08-30T03:42:18;4.40;;;1.50;;
62925;SDS011;55732;52.248;-0.844;2022-08-30T03:44:44;4.50;;;2.10;;
62925;SDS011;55732;52.248;-0.844;2022-08-30T03:47:10;2.90;;;1.60;;
62925;SDS011;55732;52.248;-0.844;2022-08-30T03:49:35;4.70;;;1.60;;
62925;SDS011;55732;52.248;-0.844;2022-08-30T03:52:02;4.90;;;1.60;;
62925;SDS011;55732;52.248;-0.844;2022-08-30T03:54:28;4.00;;;1.90;;
62925;SDS011;55732;52.248;-0.844;2022-08-30T03:56:54;5.00;;;1.80;;
62925;SDS011;55732;52.248;-0.844;2022-08-30T03:59:20;4.80;;;1.60;;
62925;SDS011;55732;52.248;-0.844;2022-08-30T04:01:45;3.60;;;1.90;;
62925;SDS011;55732;52.248;-0.844;2022-08-30T04:04:12;3.70;;;1.90;;
62925;SDS011;55732;52.248;-0.844;2022-08-30T04:06:38;4.90;;;1.80;;
62925;SDS011;55732;52.248;-0.844;2022-08-30T04:09:04;4.00;;;1.80;;
62925;SDS011;55732;52.248;-0.844;2022-08-30T04:11:30;1.70;;;1.50;;
62925;SDS011;55732;52.248;-0.844;2022-08-30T04:13:56;2.00;;;1.60;;
62925;SDS011;55732;52.248;-0.844;2022-08-30T04:16:22;2.80;;;1.60;;
62925;SDS011;55732;52.248;-0.844;2022-08-30T04:18:48;3.40;;;1.70;;
62925;SDS011;55732;52.248;-0.844;2022-08-30T04:21:14;5.70;;;1.70;;
62925;SDS011;55732;52.248;-0.844;2022-08-30T04:23:40;8.40;;;2.10;;
62925;SDS011;55732;52.248;-0.844;2022-08-30T04:26:08;3.00;;;1.70;;
62925;SDS011;55732;52.248;-0.844;2022-08-30T04:28:34;5.60;;;2.00;;
62925;SDS011;55732;52.248;-0.844;2022-08-30T04:31:06;3.30;;;1.70;;
62925;SDS011;55732;52.248;-0.844;2022-08-30T04:33:34;3.40;;;1.60;;
62925;SDS011;55732;52.248;-0.844;2022-08-30T04:36:00;2.80;;;1.90;;
62925;SDS011;55732;52.248;-0.844;2022-08-30T04:38:29;3.50;;;1.70;;
62925;SDS011;55732;52.248;-0.844;2022-08-30T04:40:55;4.30;;;1.80;;
62925;SDS011;55732;52.248;-0.844;2022-08-30T04:43:21;2.80;;;1.50;;
62925;SDS011;55732;52.248;-0.844;2022-08-30T04:45:49;5.50;;;1.90;;
62925;SDS011;55732;52.248;-0.844;2022-08-30T04:48:16;6.80;;;1.80;;
62925;SDS011;55732;52.248;-0.844;2022-08-30T04:50:42;4.10;;;1.90;;
62925;SDS011;55732;52.248;-0.844;2022-08-30T04:53:08;4.00;;;1.90;;
62925;SDS011;55732;52.248;-0.844;2022-08-30T04:55:33;2.30;;;1.60;;
62925;SDS011;55732;52.248;-0.844;2022-08-30T04:57:59;6.10;;;1.80;;
62925;SDS011;55732;52.248;-0.844;2022-08-30T05:00:25;5.20;;;1.70;;
62925;SDS011;55732;52.248;-0.844;2022-08-30T05:02:51;8.00;;;2.30;;
62925;SDS011;55732;52.248;-0.844;2022-08-30T05:05:16;3.00;;;1.90;;
62925;SDS011;55732;52.248;-0.844;2022-08-30T05:08:01;3.80;;;1.90;;
62925;SDS011;55732;52.248;-0.844;2022-08-30T05:10:26;2.00;;;1.30;;
62925;SDS011;55732;52.248;-0.844;2022-08-30T05:12:53;4.90;;;2.00;;
62925;SDS011;55732;52.248;-0.844;2022-08-30T05:15:18;7.50;;;1.90;;
62925;SDS011;55732;52.248;-0.844;2022-08-30T05:17:44;5.60;;;1.90;;
62925;SDS011;55732;52.248;-0.844;2022-08-30T05:20:10;4.30;;;1.90;;
62925;SDS011;55732;52.248;-0.844;2022-08-30T05:22:37;4.80;;;2.20;;
62925;SDS011;55732;52.248;-0.844;2022-08-30T05:25:04;5.60;;;1.70;;
62925;SDS011;55732;52.248;-0.844;2022-08-30T05:27:30;6.00;;;2.00;;
62925;SDS011;55732;52.248;-0.844;2022-08-30T05:29:56;4.00;;;1.80;;
62925;SDS011;55732;52.248;-0.844;2022-08-30T05:32:22;3.90;;;1.90;;
62925;SDS011;55732;52.248;-0.844;2022-08-30T05:34:47;3.60;;;1.70;;
62925;SDS011;55732;52.248;-0.844;2022-08-30T05:37:13;3.40;;;1.50;;
62925;SDS011;55732;52.248;-0.844;2022-08-30T05:39:38;2.20;;;1.60;;
62925;SDS011;55732;52.248;-0.844;2022-08-30T05:42:04;4.50;;;1.80;;
62925;SDS011;55732;52.248;-0.844;2022-08-30T05:44:29;4.00;;;1.70;;
62925;SDS011;55732;52.248;-0.844;2022-08-30T05:46:55;3.50;;;1.60;;
62925;SDS011;55732;52.248;-0.844;2022-08-30T05:49:20;5.70;;;1.80;;
62925;SDS011;55732;52.248;-0.844;2022-08-30T05:51:46;5.50;;;1.90;;
62925;SDS011;55732;52.248;-0.844;2022-08-30T05:54:12;4.20;;;1.80;;
62925;SDS011;55732;52.248;-0.844;2022-08-30T05:56:40;4.50;;;1.80;;
62925;SDS011;55732;52.248;-0.844;2022-08-30T05:59:09;4.20;;;1.80;;
62925;SDS011;55732;52.248;-0.844;2022-08-30T06:01:36;6.60;;;2.30;;
62925;SDS011;55732;52.248;-0.844;2022-08-30T06:04:05;3.80;;;1.70;;
62925;SDS011;55732;52.248;-0.844;2022-08-30T06:06:33;4.90;;;1.70;;
62925;SDS011;55732;52.248;-0.844;2022-08-30T06:09:02;5.80;;;2.80;;
62925;SDS011;55732;52.248;-0.844;2022-08-30T06:11:32;4.20;;;1.60;;
62925;SDS011;55732;52.248;-0.844;2022-08-30T06:13:58;4.40;;;1.80;;
62925;SDS011;55732;52.248;-0.844;2022-08-30T06:16:25;5.80;;;1.90;;
62925;SDS011;55732;52.248;-0.844;2022-08-30T06:18:52;5.50;;;1.80;;
62925;SDS011;55732;52.248;-0.844;2022-08-30T06:21:22;5.20;;;2.00;;
62925;SDS011;55732;52.248;-0.844;2022-08-30T06:23:52;2.70;;;1.60;;
62925;SDS011;55732;52.248;-0.844;2022-08-30T06:26:19;6.50;;;1.80;;
62925;SDS011;55732;52.248;-0.844;2022-08-30T06:28:45;5.80;;;1.90;;
62925;SDS011;55732;52.248;-0.844;2022-08-30T06:31:12;6.60;;;1.90;;
62925;SDS011;55732;52.248;-0.844;2022-08-30T06:36:05;4.90;;;1.70;;
62925;SDS011;55732;52.248;-0.844;2022-08-30T06:38:33;2.70;;;1.50;;
62925;SDS011;55732;52.248;-0.844;2022-08-30T06:40:59;3.20;;;1.80;;
62925;SDS011;55732;52.248;-0.844;2022-08-30T06:43:24;4.10;;;1.60;;
62925;SDS011;55732;52.248;-0.844;2022-08-30T06:45:50;4.00;;;1.80;;
62925;SDS011;55732;52.248;-0.844;2022-08-30T06:48:15;4.60;;;1.90;;
62925;SDS011;55732;52.248;-0.844;2022-08-30T06:50:41;3.10;;;1.70;;
62925;SDS011;55732;52.248;-0.844;2022-08-30T06:53:07;4.40;;;1.80;;
62925;SDS011;55732;52.248;-0.844;2022-08-30T06:55:33;2.20;;;1.70;;
62925;SDS011;55732;52.248;-0.844;2022-08-30T06:57:59;4.80;;;1.90;;
62925;SDS011;55732;52.248;-0.844;2022-08-30T07:00:26;3.00;;;1.60;;
62925;SDS011;55732;52.248;-0.844;2022-08-30T07:02:53;4.10;;;2.00;;
62925;SDS011;55732;52.248;-0.844;2022-08-30T07:05:18;2.40;;;1.60;;
62925;SDS011;55732;52.248;-0.844;2022-08-30T07:07:47;3.10;;;1.60;;
62925;SDS011;55732;52.248;-0.844;2022-08-30T07:10:12;1.80;;;1.40;;
62925;SDS011;55732;52.248;-0.844;2022-08-30T07:12:38;5.50;;;1.80;;
62925;SDS011;55732;52.248;-0.844;2022-08-30T07:15:04;4.40;;;1.60;;
62925;SDS011;55732;52.248;-0.844;2022-08-30T07:17:30;4.20;;;1.60;;
62925;SDS011;55732;52.248;-0.844;2022-08-30T07:20:14;4.10;;;1.70;;
62925;SDS011;55732;52.248;-0.844;2022-08-30T07:22:40;4.20;;;1.60;;
62925;SDS011;55732;52.248;-0.844;2022-08-30T07:25:06;4.40;;;1.70;;
62925;SDS011;55732;52.248;-0.844;2022-08-30T07:27:32;2.60;;;1.50;;
62925;SDS011;55732;52.248;-0.844;2022-08-30T07:29:57;3.20;;;1.40;;
62925;SDS011;55732;52.248;-0.844;2022-08-30T07:32:23;5.50;;;1.90;;
62925;SDS011;55732;52.248;-0.844;2022-08-30T07:34:49;5.20;;;1.80;;
62925;SDS011;55732;52.248;-0.844;2022-08-30T07:37:15;4.30;;;1.40;;
62925;SDS011;55732;52.248;-0.844;2022-08-30T07:39:40;4.00;;;1.60;;
62925;SDS011;55732;52.248;-0.844;2022-08-30T07:42:05;4.40;;;1.50;;
62925;SDS011;55732;52.248;-0.844;2022-08-30T07:44:31;5.30;;;1.70;;
62925;SDS011;55732;52.248;-0.844;2022-08-30T07:46:56;23.50;;;2.00;;
62925;SDS011;55732;52.248;-0.844;2022-08-30T07:49:22;4.40;;;1.90;;
62925;SDS011;55732;52.248;-0.844;2022-08-30T07:51:47;3.30;;;1.50;;
62925;SDS011;55732;52.248;-0.844;2022-08-30T07:54:13;2.70;;;1.60;;
62925;SDS011;55732;52.248;-0.844;2022-08-30T07:56:39;2.70;;;1.50;;
62925;SDS011;55732;52.248;-0.844;2022-08-30T07:59:05;2.50;;;1.30;;
62925;SDS011;55732;52.248;-0.844;2022-08-30T08:01:30;5.70;;;1.60;;
62925;SDS011;55732;52.248;-0.844;2022-08-30T08:03:56;4.80;;;1.60;;
62925;SDS011;55732;52.248;-0.844;2022-08-30T08:06:21;3.20;;;1.50;;
62925;SDS011;55732;52.248;-0.844;2022-08-30T08:13:49;2.80;;;1.50;;
62925;SDS011;55732;52.248;-0.844;2022-08-30T08:16:15;5.70;;;1.70;;
62925;SDS011;55732;52.248;-0.844;2022-08-30T08:23:32;3.00;;;1.60;;
62925;SDS011;55732;52.248;-0.844;2022-08-30T08:28:24;3.50;;;1.50;;
62925;SDS011;55732;52.248;-0.844;2022-08-30T08:30:50;2.10;;;1.40;;
62925;SDS011;55732;52.248;-0.844;2022-08-30T08:33:16;4.10;;;1.70;;
62925;SDS011;55732;52.248;-0.844;2022-08-30T08:35:42;2.30;;;1.40;;
62925;SDS011;55732;52.248;-0.844;2022-08-30T08:38:08;2.20;;;1.20;;
62925;SDS011;55732;52.248;-0.844;2022-08-30T08:43:10;2.40;;;1.60;;
62925;SDS011;55732;52.248;-0.844;2022-08-30T08:51:03;2.40;;;1.50;;
62925;SDS011;55732;52.248;-0.844;2022-08-30T08:53:52;4.30;;;1.50;;
62925;SDS011;55732;52.248;-0.844;2022-08-30T08:56:25;3.30;;;1.40;;
62925;SDS011;55732;52.248;-0.844;2022-08-30T08:58:52;3.10;;;1.60;;
62925;SDS011;55732;52.248;-0.844;2022-08-30T09:01:21;4.20;;;1.60;;
62925;SDS011;55732;52.248;-0.844;2022-08-30T09:03:49;3.40;;;1.60;;
62925;SDS011;55732;52.248;-0.844;2022-08-30T09:09:02;4.80;;;1.60;;
62925;SDS011;55732;52.248;-0.844;2022-08-30T09:11:29;3.60;;;1.70;;
62925;SDS011;55732;52.248;-0.844;2022-08-30T09:13:58;3.50;;;1.50;;
62925;SDS011;55732;52.248;-0.844;2022-08-30T09:19:42;3.60;;;1.70;;
62925;SDS011;55732;52.248;-0.844;2022-08-30T09:30:08;2.90;;;1.50;;
62925;SDS011;55732;52.248;-0.844;2022-08-30T09:32:36;3.60;;;1.60;;
62925;SDS011;55732;52.248;-0.844;2022-08-30T09:35:08;4.30;;;2.00;;
62925;SDS011;55732;52.248;-0.844;2022-08-30T09:37:38;3.60;;;1.70;;
62925;SDS011;55732;52.248;-0.844;2022-08-30T09:40:11;3.20;;;1.60;;
62925;SDS011;55732;52.248;-0.844;2022-08-30T09:42:46;4.50;;;1.90;;
62925;SDS011;55732;52.248;-0.844;2022-08-30T09:45:34;2.90;;;1.60;;
62925;SDS011;55732;52.248;-0.844;2022-08-30T09:53:35;2.30;;;1.40;;
62925;SDS011;55732;52.248;-0.844;2022-08-30T09:56:19;4.90;;;1.50;;
62925;SDS011;55732;52.248;-0.844;2022-08-30T09:59:07;2.80;;;1.60;;
62925;SDS011;55732;52.248;-0.844;2022-08-30T10:01:39;2.60;;;1.70;;
62925;SDS011;55732;52.248;-0.844;2022-08-30T10:06:50;3.70;;;1.60;;
62925;SDS011;55732;52.248;-0.844;2022-08-30T10:09:48;5.30;;;1.80;;
62925;SDS011;55732;52.248;-0.844;2022-08-30T10:12:28;2.60;;;1.70;;
62925;SDS011;55732;52.248;-0.844;2022-08-30T10:15:24;3.10;;;1.70;;
62925;SDS011;55732;52.248;-0.844;2022-08-30T10:18:04;2.90;;;1.50;;
62925;SDS011;55732;52.248;-0.844;2022-08-30T10:23:45;2.50;;;1.60;;
62925;SDS011;55732;52.248;-0.844;2022-08-30T10:29:05;3.00;;;1.90;;
62925;SDS011;55732;52.248;-0.844;2022-08-30T10:31:40;4.90;;;1.70;;
62925;SDS011;55732;52.248;-0.844;2022-08-30T10:34:31;4.50;;;1.60;;
62925;SDS011;55732;52.248;-0.844;2022-08-30T10:37:03;4.30;;;1.90;;
62925;SDS011;55732;52.248;-0.844;2022-08-30T10:39:40;2.80;;;1.70;;
62925;SDS011;55732;52.248;-0.844;2022-08-30T10:42:12;3.40;;;1.30;;
62925;SDS011;55732;52.248;-0.844;2022-08-30T10:44:47;4.10;;;1.70;;
62925;SDS011;55732;52.248;-0.844;2022-08-30T10:47:37;6.30;;;1.80;;
62925;SDS011;55732;52.248;-0.844;2022-08-30T10:52:58;2.30;;;1.70;;
62925;SDS011;55732;52.248;-0.844;2022-08-30T10:55:36;2.60;;;1.50;;
62925;SDS011;55732;52.248;-0.844;2022-08-30T10:58:09;2.70;;;1.70;;
62925;SDS011;55732;52.248;-0.844;2022-08-30T11:14:53;6.60;;;2.10;;
62925;SDS011;55732;52.248;-0.844;2022-08-30T11:19:57;4.20;;;1.70;;
62925;SDS011;55732;52.248;-0.844;2022-08-30T11:22:28;6.20;;;1.90;;
62925;SDS011;55732;52.248;-0.844;2022-08-30T11:25:10;2.80;;;1.80;;
62925;SDS011;55732;52.248;-0.844;2022-08-30T11:27:47;6.70;;;1.80;;
62925;SDS011;55732;52.248;-0.844;2022-08-30T11:37:59;3.40;;;1.80;;
62925;SDS011;55732;52.248;-0.844;2022-08-30T11:42:54;5.10;;;2.00;;
62925;SDS011;55732;52.248;-0.844;2022-08-30T11:47:56;6.10;;;1.70;;
62925;SDS011;55732;52.248;-0.844;2022-08-30T11:55:34;6.10;;;2.20;;
62925;SDS011;55732;52.248;-0.844;2022-08-30T12:01:13;5.50;;;2.60;;
62925;SDS011;55732;52.248;-0.844;2022-08-30T12:06:55;8.90;;;4.10;;
62925;SDS011;55732;52.248;-0.844;2022-08-30T12:17:25;13.30;;;6.60;;
62925;SDS011;55732;52.248;-0.844;2022-08-30T12:20:42;10.60;;;5.20;;
62925;SDS011;55732;52.248;-0.844;2022-08-30T12:23:18;11.70;;;5.10;;
62925;SDS011;55732;52.248;-0.844;2022-08-30T12:26:07;9.40;;;4.90;;
62925;SDS011;55732;52.248;-0.844;2022-08-30T12:28:39;10.20;;;2.80;;
62925;SDS011;55732;52.248;-0.844;2022-08-30T12:31:10;3.80;;;2.10;;
62925;SDS011;55732;52.248;-0.844;2022-08-30T12:33:40;4.70;;;1.80;;
62925;SDS011;55732;52.248;-0.844;2022-08-30T12:36:15;6.40;;;3.20;;
62925;SDS011;55732;52.248;-0.844;2022-08-30T12:39:09;6.50;;;3.30;;
62925;SDS011;55732;52.248;-0.844;2022-08-30T12:41:40;8.80;;;3.90;;
62925;SDS011;55732;52.248;-0.844;2022-08-30T12:44:14;7.50;;;2.40;;
62925;SDS011;55732;52.248;-0.844;2022-08-30T12:46:46;8.80;;;2.70;;
62925;SDS011;55732;52.248;-0.844;2022-08-30T12:49:15;5.70;;;2.30;;
62925;SDS011;55732;52.248;-0.844;2022-08-30T12:51:42;6.80;;;2.70;;
62925;SDS011;55732;52.248;-0.844;2022-08-30T12:56:47;7.00;;;2.90;;
62925;SDS011;55732;52.248;-0.844;2022-08-30T13:02:13;6.10;;;2.30;;
62925;SDS011;55732;52.248;-0.844;2022-08-30T13:04:51;7.40;;;2.60;;
62925;SDS011;55732;52.248;-0.844;2022-08-30T13:07:26;8.00;;;2.00;;
62925;SDS011;55732;52.248;-0.844;2022-08-30T13:10:03;5.20;;;1.80;;
62925;SDS011;55732;52.248;-0.844;2022-08-30T13:12:32;8.00;;;2.20;;
62925;SDS011;55732;52.248;-0.844;2022-08-30T13:15:19;4.20;;;2.10;;
62925;SDS011;55732;52.248;-0.844;2022-08-30T13:20:51;4.30;;;1.60;;
62925;SDS011;55732;52.248;-0.844;2022-08-30T13:23:45;8.00;;;2.00;;
62925;SDS011;55732;52.248;-0.844;2022-08-30T13:26:12;4.10;;;1.40;;
62925;SDS011;55732;52.248;-0.844;2022-08-30T13:28:42;3.70;;;1.60;;
62925;SDS011;55732;52.248;-0.844;2022-08-30T13:31:13;4.40;;;1.60;;
62925;SDS011;55732;52.248;-0.844;2022-08-30T13:33:47;4.70;;;2.10;;
62925;SDS011;55732;52.248;-0.844;2022-08-30T13:36:16;3.60;;;2.00;;
62925;SDS011;55732;52.248;-0.844;2022-08-30T13:38:43;6.00;;;2.00;;
62925;SDS011;55732;52.248;-0.844;2022-08-30T13:41:08;2.50;;;1.70;;
62925;SDS011;55732;52.248;-0.844;2022-08-30T13:43:34;3.60;;;1.70;;
62925;SDS011;55732;52.248;-0.844;2022-08-30T13:46:00;9.00;;;1.80;;
62925;SDS011;55732;52.248;-0.844;2022-08-30T13:48:26;4.30;;;1.80;;
62925;SDS011;55732;52.248;-0.844;2022-08-30T13:50:52;5.40;;;2.40;;
62925;SDS011;55732;52.248;-0.844;2022-08-30T13:53:18;6.40;;;2.40;;
62925;SDS011;55732;52.248;-0.844;2022-08-30T13:55:43;8.50;;;2.90;;
62925;SDS011;55732;52.248;-0.844;2022-08-30T13:58:09;8.40;;;2.80;;
62925;SDS011;55732;52.248;-0.844;2022-08-30T14:00:35;10.80;;;2.80;;
62925;SDS011;55732;52.248;-0.844;2022-08-30T14:03:00;6.70;;;1.90;;
62925;SDS011;55732;52.248;-0.844;2022-08-30T14:05:30;6.60;;;1.90;;
62925;SDS011;55732;52.248;-0.844;2022-08-30T14:07:57;3.00;;;1.80;;
62925;SDS011;55732;52.248;-0.844;2022-08-30T14:10:24;7.30;;;2.10;;
62925;SDS011;55732;52.248;-0.844;2022-08-30T14:12:51;3.60;;;1.90;;
62925;SDS011;55732;52.248;-0.844;2022-08-30T14:15:17;7.00;;;2.20;;
62925;SDS011;55732;52.248;-0.844;2022-08-30T14:17:42;8.60;;;2.00;;
62925;SDS011;55732;52.248;-0.844;2022-08-30T14:20:08;6.10;;;1.90;;
62925;SDS011;55732;52.248;-0.844;2022-08-30T14:22:34;3.80;;;1.90;;
62925;SDS011;55732;52.248;-0.844;2022-08-30T14:24:59;3.30;;;1.60;;
62925;SDS011;55732;52.248;-0.844;2022-08-30T14:27:27;6.10;;;2.00;;
62925;SDS011;55732;52.248;-0.844;2022-08-30T14:29:53;6.80;;;2.20;;
62925;SDS011;55732;52.248;-0.844;2022-08-30T14:32:19;8.70;;;2.40;;
62925;SDS011;55732;52.248;-0.844;2022-08-30T14:34:45;6.10;;;2.30;;
62925;SDS011;55732;52.248;-0.844;2022-08-30T14:37:10;6.10;;;2.20;;
62925;SDS011;55732;52.248;-0.844;2022-08-30T14:39:36;3.40;;;2.00;;
62925;SDS011;55732;52.248;-0.844;2022-08-30T14:42:02;4.40;;;1.90;;
62925;SDS011;55732;52.248;-0.844;2022-08-30T14:44:29;8.10;;;1.90;;
62925;SDS011;55732;52.248;-0.844;2022-08-30T14:46:54;5.20;;;1.70;;
62925;SDS011;55732;52.248;-0.844;2022-08-30T14:49:21;4.30;;;1.90;;
62925;SDS011;55732;52.248;-0.844;2022-08-30T14:51:48;5.20;;;2.00;;
62925;SDS011;55732;52.248;-0.844;2022-08-30T14:54:15;3.40;;;1.80;;
62925;SDS011;55732;52.248;-0.844;2022-08-30T14:56:42;1.80;;;1.40;;
62925;SDS011;55732;52.248;-0.844;2022-08-30T14:59:08;3.30;;;1.70;;
62925;SDS011;55732;52.248;-0.844;2022-08-30T15:01:34;6.10;;;2.10;;
62925;SDS011;55732;52.248;-0.844;2022-08-30T15:04:01;7.70;;;2.60;;
62925;SDS011;55732;52.248;-0.844;2022-08-30T15:06:27;3.50;;;1.70;;
62925;SDS011;55732;52.248;-0.844;2022-08-30T15:08:53;3.40;;;1.80;;
62925;SDS011;55732;52.248;-0.844;2022-08-30T15:11:20;4.20;;;1.50;;
62925;SDS011;55732;52.248;-0.844;2022-08-30T15:13:47;4.80;;;2.00;;
62925;SDS011;55732;52.248;-0.844;2022-08-30T15:16:20;7.50;;;2.20;;
62925;SDS011;55732;52.248;-0.844;2022-08-30T15:18:52;7.30;;;2.00;;
62925;SDS011;55732;52.248;-0.844;2022-08-30T15:21:22;4.70;;;2.00;;
62925;SDS011;55732;52.248;-0.844;2022-08-30T15:23:48;6.90;;;2.20;;
62925;SDS011;55732;52.248;-0.844;2022-08-30T15:26:14;7.00;;;2.00;;
62925;SDS011;55732;52.248;-0.844;2022-08-30T15:28:39;4.90;;;1.90;;
62925;SDS011;55732;52.248;-0.844;2022-08-30T15:31:05;15.40;;;2.70;;
62925;SDS011;55732;52.248;-0.844;2022-08-30T15:33:30;3.90;;;1.90;;
62925;SDS011;55732;52.248;-0.844;2022-08-30T15:35:58;2.80;;;1.80;;
62925;SDS011;55732;52.248;-0.844;2022-08-30T15:38:24;8.60;;;1.80;;
62925;SDS011;55732;52.248;-0.844;2022-08-30T15:40:50;3.90;;;1.60;;
62925;SDS011;55732;52.248;-0.844;2022-08-30T15:43:15;5.90;;;2.10;;
62925;SDS011;55732;52.248;-0.844;2022-08-30T15:45:41;9.00;;;2.70;;
62925;SDS011;55732;52.248;-0.844;2022-08-30T15:48:06;6.60;;;2.20;;
62925;SDS011;55732;52.248;-0.844;2022-08-30T15:50:32;8.60;;;2.30;;
62925;SDS011;55732;52.248;-0.844;2022-08-30T15:52:57;7.10;;;1.90;;
62925;SDS011;55732;52.248;-0.844;2022-08-30T15:55:23;6.00;;;2.40;;
62925;SDS011;55732;52.248;-0.844;2022-08-30T15:57:48;14.00;;;3.10;;
62925;SDS011;55732;52.248;-0.844;2022-08-30T16:00:14;8.40;;;2.90;;
62925;SDS011;55732;52.248;-0.844;2022-08-30T16:02:40;5.10;;;2.10;;
62925;SDS011;55732;52.248;-0.844;2022-08-30T16:05:06;7.10;;;2.90;;
62925;SDS011;55732;52.248;-0.844;2022-08-30T16:07:31;5.50;;;2.20;;
62925;SDS011;55732;52.248;-0.844;2022-08-30T16:09:57;4.60;;;2.40;;
62925;SDS011;55732;52.248;-0.844;2022-08-30T16:12:22;5.70;;;2.10;;
62925;SDS011;55732;52.248;-0.844;2022-08-30T16:14:48;10.80;;;2.80;;
62925;SDS011;55732;52.248;-0.844;2022-08-30T16:17:13;8.50;;;3.30;;
62925;SDS011;55732;52.248;-0.844;2022-08-30T16:19:38;11.80;;;3.80;;
62925;SDS011;55732;52.248;-0.844;2022-08-30T16:22:04;8.80;;;3.10;;
62925;SDS011;55732;52.248;-0.844;2022-08-30T16:24:30;5.60;;;2.40;;
62925;SDS011;55732;52.248;-0.844;2022-08-30T16:26:55;7.30;;;2.10;;
62925;SDS011;55732;52.248;-0.844;2022-08-30T16:29:20;4.50;;;1.90;;
62925;SDS011;55732;52.248;-0.844;2022-08-30T16:31:47;10.30;;;2.20;;
62925;SDS011;55732;52.248;-0.844;2022-08-30T16:34:14;4.00;;;1.80;;